Pahala, HI

11:10 AM HST on July 29, 2016 (GMT -1000)
Discovery Harbour - South | | Change Station

Elev 1047 ft 19.03 °N, 155.63 °W | Updated 1 minute ago

Scattered Clouds
Scattered Clouds
84.9 °F
Feels Like 97 °F
N
14.0
Wind Variable Wind from NE
Gusts 15.5 mph

Today
High -- | Low -- °F
--% Chance of Precip.
Yesterday
High -- | Low -- °F
Precip. -- in
Pressure 30.01 in
Visibility 10.0 miles
Clouds Few 3000 ft
Scattered Clouds 9000 ft
Heat Index 97 °F
Dew Point 78 °F
Humidity 80%
Rainfall 0.00 in
Snow Depth Not available.
5:58 AM 6:58 PM
Waning Crescent, 19% visible
METAR PHTO 292053Z 02010KT 10SM FEW030 SCT090 28/21 A3002 RMK AO2 RAE1959B17E37 SLP163 P0000 60000 T02830206 51000
Pressure 30.01 in
Visibility 10.0 miles
Clouds Few 3000 ft
Scattered Clouds 9000 ft
Heat Index 97 °F
Dew Point 78 °F
Humidity 80%
Rainfall 0.00 in
Snow Depth Not available.
5:58 AM 6:58 PM
Waning Crescent, 19% visible
METAR PHTO 292053Z 02010KT 10SM FEW030 SCT090 28/21 A3002 RMK AO2 RAE1959B17E37 SLP163 P0000 60000 T02830206 51000

10-Day Weather Forecast

Almanac

Astronomy

Jul. 29, 2016 Rise Set
Actual Time
Civil Twilight
Nautical Twilight
Astronomical Twilight
Moon
Length of Visible Light
Length of Day
Tomorrow will be .
, % of the Moon is Illuminated

Today's Extremes

State Highs State Lows

Community

WunderPhotos

Upload Photos

1,928,416 photos uploaded!

WunderBlog® & News

Nearby

Air Quality

  Air Quality AQ Index Pollutant
Not available.

Snow Depth

Station Depth Elevation

Earthquake Activity

City Distance Mag. Time & Date
Minimum magnitude displayed is 2.5.

Coastal Water Temperatures

Place Temperature

Stations

Nearby Weather Stations

Station Location Temp. Windchill Dew Point Humidity Wind Precip. Elev Updated Type
                   

Watches & Warnings

There are currently no watches in effect.